createdAt,value
2022-08-03T00:00:39.057Z,98419.13
2022-08-03T00:01:41.523Z,98417.63
2022-08-03T00:02:42.982Z,98413.75
2022-08-03T00:03:44.749Z,98410.41
2022-08-03T00:04:46.956Z,98415.81
2022-08-03T00:06:03.966Z,98413.50
2022-08-03T00:07:06.383Z,98412.25
2022-08-03T00:08:07.896Z,98413.00
2022-08-03T00:09:10.025Z,98414.97
2022-08-03T00:10:13.506Z,98418.47
2022-08-03T00:11:15.057Z,98415.53
2022-08-03T00:12:16.905Z,98419.41
2022-08-03T00:13:19.876Z,98410.97
2022-08-03T00:14:21.682Z,98414.06
2022-08-03T00:15:23.310Z,98417.47
2022-08-03T00:16:26.351Z,98416.78
2022-08-03T00:17:27.796Z,98413.44
2022-08-03T00:18:29.319Z,98408.34
2022-08-03T00:19:31.280Z,98424.56
2022-08-03T00:20:32.854Z,98418.47
2022-08-03T00:21:34.814Z,98416.94
2022-08-03T00:22:36.343Z,98420.72
2022-08-03T00:23:52.121Z,98422.38
2022-08-03T00:24:54.619Z,98423.13
2022-08-03T00:25:56.555Z,98424.34
2022-08-03T00:26:58.014Z,98420.59
2022-08-03T00:27:59.518Z,98425.84
2022-08-03T00:29:01.379Z,98427.50
2022-08-03T00:30:03.439Z,98427.97
2022-08-03T00:31:04.976Z,98430.94
2022-08-03T00:32:06.552Z,98430.19
2022-08-03T00:33:12.442Z,98430.22
2022-08-03T00:34:16.150Z,98433.66
2022-08-03T00:35:29.975Z,98428.63
2022-08-03T00:36:38.675Z,98428.31
2022-08-03T00:37:41.482Z,98428.25
2022-08-03T00:38:43.375Z,98432.84
2022-08-03T00:39:47.558Z,98436.97
2022-08-03T00:40:49.193Z,98427.28
2022-08-03T00:41:50.737Z,98427.94
2022-08-03T00:42:58.478Z,98426.03
2022-08-03T00:43:59.976Z,98427.97
2022-08-03T00:45:01.790Z,98438.22
2022-08-03T00:46:03.299Z,98426.09
2022-08-03T00:47:04.885Z,98427.41
2022-08-03T00:48:29.500Z,98426.31
2022-08-03T00:49:30.306Z,98425.31
2022-08-03T00:50:35.074Z,98425.66
2022-08-03T00:51:36.558Z,98428.56
2022-08-03T00:52:38.038Z,98430.91
2022-08-03T00:53:39.707Z,98426.34
2022-08-03T00:54:41.271Z,98428.34
2022-08-03T00:55:44.047Z,98432.13
2022-08-03T00:56:59.477Z,98435.28
2022-08-03T00:58:06.582Z,98431.38
2022-08-03T00:59:10.659Z,98427.09
2022-08-03T01:00:26.599Z,98427.72
2022-08-03T01:01:32.175Z,98423.78
2022-08-03T01:02:34.126Z,98425.69
2022-08-03T01:03:35.663Z,98433.66
2022-08-03T01:04:37.173Z,98430.41
2022-08-03T01:06:10.492Z,98425.81
2022-08-03T01:07:30.198Z,98421.16
2022-08-03T01:08:42.596Z,98421.91
2022-08-03T01:10:23.262Z,98428.97
2022-08-03T01:12:00.935Z,98428.91
2022-08-03T01:13:59.910Z,98426.63
2022-08-03T01:14:54.691Z,98425.25
2022-08-03T01:16:14.888Z,98427.50
2022-08-03T01:17:25.255Z,98429.81
2022-08-03T01:18:43.729Z,98427.09
2022-08-03T01:20:08.675Z,98432.47
2022-08-03T01:21:14.660Z,98431.69
2022-08-03T01:22:37.141Z,98424.09
2022-08-03T01:24:03.800Z,98427.13
2022-08-03T01:25:24.802Z,98424.13
2022-08-03T01:26:44.851Z,98425.41
2022-08-03T01:28:02.768Z,98421.16
2022-08-03T01:29:17.312Z,98423.00
2022-08-03T01:30:19.992Z,98431.03
2022-08-03T01:31:26.196Z,98426.16
2022-08-03T01:32:59.365Z,98425.41
2022-08-03T01:34:00.462Z,98424.59
2022-08-03T01:35:11.069Z,98424.53
2022-08-03T01:36:22.553Z,98430.59
2022-08-03T01:37:28.084Z,98425.34
2022-08-03T01:38:33.739Z,98419.34
2022-08-03T01:39:38.182Z,98420.19
2022-08-03T01:40:41.679Z,98422.81
2022-08-03T01:41:53.344Z,98417.50
2022-08-03T01:42:57.521Z,98420.22
2022-08-03T01:44:29.986Z,98422.66
2022-08-03T01:45:25.035Z,98421.16
2022-08-03T01:46:26.943Z,98420.38
2022-08-03T01:47:30.544Z,98418.41
2022-08-03T01:48:33.244Z,98416.88
2022-08-03T01:49:39.467Z,98419.53
2022-08-03T01:50:42.449Z,98419.72
2022-08-03T01:51:58.384Z,98417.91
2022-08-03T01:53:09.273Z,98421.28
2022-08-03T01:54:12.637Z,98415.88
2022-08-03T01:55:19.276Z,98406.25
2022-08-03T01:56:24.262Z,98410.03
2022-08-03T01:57:29.109Z,98410.06
2022-08-03T01:58:33.659Z,98415.78
2022-08-03T01:59:37.516Z,98404.34
2022-08-03T02:00:40.935Z,98407.28
2022-08-03T02:02:29.788Z,98415.41
2022-08-03T02:03:07.190Z,98412.53
2022-08-03T02:04:10.863Z,98414.03
2022-08-03T02:05:14.760Z,98410.59
2022-08-03T02:07:01.813Z,98406.50
2022-08-03T02:07:43.066Z,98397.94
2022-08-03T02:08:45.360Z,98407.16
2022-08-03T02:09:51.630Z,98412.81
2022-08-03T02:10:57.599Z,98416.28
2022-08-03T02:12:00.766Z,98409.44
2022-08-03T02:13:04.305Z,98404.75
2022-08-03T02:14:06.673Z,98407.78
2022-08-03T02:15:09.300Z,98401.66
2022-08-03T02:16:14.390Z,98402.78
2022-08-03T02:17:16.253Z,98416.94
2022-08-03T02:18:19.044Z,98409.97
2022-08-03T02:19:21.690Z,98406.50
2022-08-03T02:20:24.567Z,98405.84
2022-08-03T02:21:55.602Z,98407.22
2022-08-03T02:22:49.619Z,98409.72
2022-08-03T02:23:51.080Z,98407.19
2022-08-03T02:24:52.535Z,98410.34
2022-08-03T02:25:59.874Z,98404.63
2022-08-03T02:27:06.042Z,98405.84
2022-08-03T02:28:15.875Z,98402.44
2022-08-03T02:29:21.770Z,98403.25
2022-08-03T02:30:45.828Z,98402.44
2022-08-03T02:31:58.138Z,98403.81
2022-08-03T02:33:02.034Z,98410.94
2022-08-03T02:34:08.750Z,98399.47
2022-08-03T02:35:13.323Z,98391.69
2022-08-03T02:36:20.037Z,98399.03
2022-08-03T02:37:23.862Z,98399.50
2022-08-03T02:38:31.288Z,98397.44
2022-08-03T02:39:35.672Z,98401.94
2022-08-03T02:40:39.616Z,98401.06
2022-08-03T02:41:52.992Z,98401.16
2022-08-03T02:42:57.978Z,98397.38
2022-08-03T02:44:06.965Z,98400.00
2022-08-03T02:45:14.902Z,98396.59
2022-08-03T02:46:20.153Z,98389.81
2022-08-03T02:47:22.560Z,98389.22
2022-08-03T02:48:28.650Z,98399.31
2022-08-03T02:49:40.551Z,98401.56
2022-08-03T02:50:54.783Z,98399.25
2022-08-03T02:51:59.316Z,98399.50
2022-08-03T02:53:03.019Z,98399.47
2022-08-03T02:54:06.407Z,98401.53
2022-08-03T02:55:10.921Z,98402.16
2022-08-03T02:56:14.773Z,98403.47
2022-08-03T02:57:18.929Z,98400.19
2022-08-03T02:58:23.596Z,98392.38
2022-08-03T02:59:27.570Z,98389.53
2022-08-03T03:00:31.906Z,98395.75
2022-08-03T03:01:34.245Z,98395.47
2022-08-03T03:02:37.066Z,98397.38
2022-08-03T03:03:45.054Z,98397.78
2022-08-03T03:05:52.133Z,98395.09
2022-08-03T03:06:13.415Z,98405.63
2022-08-03T03:07:17.976Z,98395.28
2022-08-03T03:08:26.858Z,98400.81
2022-08-03T03:09:41.492Z,98401.50
2022-08-03T03:10:45.195Z,98400.75
2022-08-03T03:11:49.322Z,98410.69
2022-08-03T03:12:55.163Z,98412.97
2022-08-03T03:13:57.561Z,98412.22
2022-08-03T03:14:59.085Z,98410.34
2022-08-03T03:16:02.562Z,98412.06
2022-08-03T03:17:05.284Z,98412.81
2022-08-03T03:18:09.989Z,98409.78
2022-08-03T03:19:14.188Z,98413.97
2022-08-03T03:20:16.022Z,98414.66
2022-08-03T03:21:33.468Z,98410.72
2022-08-03T03:22:36.126Z,98407.00
2022-08-03T03:23:39.942Z,98402.06
2022-08-03T03:24:44.075Z,98412.47
2022-08-03T03:25:46.031Z,98406.72
2022-08-03T03:26:49.112Z,98406.72
2022-08-03T03:27:51.181Z,98409.69
2022-08-03T03:28:52.885Z,98408.94
2022-08-03T03:29:54.694Z,98411.75
2022-08-03T03:30:56.510Z,98406.81
2022-08-03T03:31:58.423Z,98411.41
2022-08-03T03:33:02.983Z,98415.19
2022-08-03T03:34:05.135Z,98409.94
2022-08-03T03:35:09.729Z,98415.25
2022-08-03T03:36:11.599Z,98416.78
2022-08-03T03:37:13.097Z,98412.94
2022-08-03T03:38:14.649Z,98419.06
2022-08-03T03:39:16.245Z,98412.16
2022-08-03T03:40:17.836Z,98421.25
2022-08-03T03:41:19.773Z,98421.69
2022-08-03T03:42:22.336Z,98413.72
2022-08-03T03:43:24.835Z,98414.16
2022-08-03T03:44:28.629Z,98420.66
2022-08-03T03:45:31.097Z,98416.81
2022-08-03T03:46:33.276Z,98424.00
2022-08-03T03:47:35.837Z,98408.38
2022-08-03T03:48:38.887Z,98409.09
2022-08-03T03:49:42.939Z,98416.03
2022-08-03T03:50:45.570Z,98416.88
2022-08-03T03:51:47.392Z,98417.81
2022-08-03T03:52:48.853Z,98414.91
2022-08-03T03:54:01.985Z,98417.19
2022-08-03T03:55:03.820Z,98417.09
2022-08-03T03:56:05.698Z,98411.06
2022-08-03T03:57:07.234Z,98416.66
2022-08-03T03:58:09.052Z,98423.13
2022-08-03T03:59:10.910Z,98421.69
2022-08-03T04:00:15.269Z,98415.22
2022-08-03T04:01:17.671Z,98421.25
2022-08-03T04:02:19.165Z,98419.34
2022-08-03T04:03:20.676Z,98415.88
2022-08-03T04:04:40.863Z,98415.44
2022-08-03T04:06:01.753Z,98412.72
2022-08-03T04:07:22.227Z,98418.00
2022-08-03T04:08:41.988Z,98420.72
2022-08-03T04:10:08.789Z,98424.19
2022-08-03T04:11:38.604Z,98416.94
2022-08-03T04:12:50.150Z,98421.47
2022-08-03T04:14:05.243Z,98414.84
2022-08-03T04:15:08.074Z,98414.13
2022-08-03T04:16:14.837Z,98416.88
2022-08-03T04:17:17.330Z,98413.09
2022-08-03T04:18:20.065Z,98416.13
2022-08-03T04:19:35.170Z,98417.38
2022-08-03T04:20:37.510Z,98425.38
2022-08-03T04:21:43.732Z,98425.81
2022-08-03T04:22:47.988Z,98420.63
2022-08-03T04:23:53.032Z,98423.72
2022-08-03T04:25:01.082Z,98409.59
2022-08-03T04:26:05.488Z,98427.31
2022-08-03T04:27:09.464Z,98423.16
2022-08-03T04:28:30.486Z,98412.81
2022-08-03T04:29:34.976Z,98424.94
2022-08-03T04:30:47.495Z,98427.53
2022-08-03T04:31:50.014Z,98433.66
2022-08-03T04:32:51.956Z,98426.09
2022-08-03T04:33:54.573Z,98430.69
2022-08-03T04:34:56.232Z,98433.03
2022-08-03T04:36:02.915Z,98430.41
2022-08-03T04:37:13.183Z,98435.31
2022-08-03T04:38:18.485Z,98422.06
2022-08-03T04:39:25.653Z,98430.00
2022-08-03T04:40:37.080Z,98425.78
2022-08-03T04:42:07.188Z,98427.75
2022-08-03T04:43:02.297Z,98429.28
2022-08-03T04:44:04.816Z,98429.16
2022-08-03T04:45:08.062Z,98427.63
2022-08-03T04:46:11.088Z,98428.31
2022-08-03T04:47:12.917Z,98432.44
2022-08-03T04:48:15.400Z,98433.25
2022-08-03T04:49:17.423Z,98435.44
2022-08-03T04:50:21.662Z,98432.69
2022-08-03T04:51:23.624Z,98437.19
2022-08-03T04:52:25.487Z,98436.38
2022-08-03T04:53:27.020Z,98442.47
2022-08-03T04:54:28.532Z,98441.34
2022-08-03T04:55:32.026Z,98440.19
2022-08-03T04:56:34.681Z,98438.59
2022-08-03T04:57:36.208Z,98441.56
2022-08-03T04:58:37.729Z,98439.63
2022-08-03T04:59:40.941Z,98437.09
2022-08-03T05:00:43.068Z,98440.97
2022-08-03T05:01:44.688Z,98447.00
2022-08-03T05:02:46.581Z,98434.75
2022-08-03T05:03:48.058Z,98447.63
2022-08-03T05:04:49.638Z,98440.38
2022-08-03T05:06:01.859Z,98442.19
2022-08-03T05:07:12.638Z,98445.56
2022-08-03T05:08:14.193Z,98437.50
2022-08-03T05:09:16.072Z,98447.41
2022-08-03T05:10:37.535Z,98435.09
2022-08-03T05:11:38.987Z,98445.38
2022-08-03T05:12:41.325Z,98441.16
2022-08-03T05:13:43.731Z,98445.75
2022-08-03T05:14:45.170Z,98443.09
2022-08-03T05:15:46.616Z,98444.63
2022-08-03T05:16:48.060Z,98449.22
2022-08-03T05:17:49.904Z,98442.28
2022-08-03T05:18:51.431Z,98445.31
2022-08-03T05:19:52.933Z,98448.28
2022-08-03T05:20:54.361Z,98455.19
2022-08-03T05:21:55.846Z,98452.78
2022-08-03T05:22:58.231Z,98456.50
2022-08-03T05:24:01.252Z,98464.56
2022-08-03T05:25:04.008Z,98454.66
2022-08-03T05:26:05.574Z,98457.72
2022-08-03T05:27:07.001Z,98459.97
2022-08-03T05:28:08.766Z,98464.94
2022-08-03T05:29:10.253Z,98458.06
2022-08-03T05:30:32.287Z,98459.88
2022-08-03T05:31:33.479Z,98461.28
2022-08-03T05:32:35.294Z,98462.34
2022-08-03T05:33:36.762Z,98457.78
2022-08-03T05:34:39.008Z,98460.03
2022-08-03T05:36:02.677Z,98466.50
2022-08-03T05:37:02.396Z,98463.78
2022-08-03T05:38:04.206Z,98457.63
2022-08-03T05:39:07.290Z,98462.19
2022-08-03T05:40:09.396Z,98463.63
2022-08-03T05:41:22.683Z,98467.03
2022-08-03T05:42:25.827Z,98469.63
2022-08-03T05:43:27.404Z,98455.78
2022-08-03T05:44:29.155Z,98469.84
2022-08-03T05:45:32.170Z,98473.19
2022-08-03T05:46:33.625Z,98472.03
2022-08-03T05:47:35.392Z,98463.66
2022-08-03T05:48:36.854Z,98462.03
2022-08-03T05:49:38.410Z,98465.00
2022-08-03T05:50:42.764Z,98462.53
2022-08-03T05:51:44.750Z,98461.66
2022-08-03T05:52:47.035Z,98466.63
2022-08-03T05:53:48.981Z,98465.44
2022-08-03T05:54:55.819Z,98466.94
2022-08-03T05:56:02.502Z,98462.31
2022-08-03T05:57:17.447Z,98464.16
2022-08-03T05:58:19.026Z,98460.66
2022-08-03T05:59:37.653Z,98465.53
2022-08-03T06:00:39.783Z,98465.13
2022-08-03T06:01:41.307Z,98455.53
2022-08-03T06:02:43.350Z,98456.28
2022-08-03T06:03:45.900Z,98458.16
2022-08-03T06:04:47.357Z,98459.28
2022-08-03T06:05:55.545Z,98461.47
2022-08-03T06:07:02.269Z,98460.59
2022-08-03T06:08:04.015Z,98465.88
2022-08-03T06:09:05.591Z,98470.00
2022-08-03T06:10:36.753Z,98462.72
2022-08-03T06:11:29.210Z,98458.81
2022-08-03T06:12:31.463Z,98469.47
2022-08-03T06:13:33.116Z,98463.25
2022-08-03T06:14:34.584Z,98465.44
2022-08-03T06:15:36.443Z,98471.50
2022-08-03T06:16:37.992Z,98469.19
2022-08-03T06:17:50.202Z,98469.09
2022-08-03T06:18:51.683Z,98469.34
2022-08-03T06:19:53.838Z,98468.09
2022-08-03T06:20:55.762Z,98463.84
2022-08-03T06:21:57.226Z,98469.53
2022-08-03T06:23:00.502Z,98467.53
2022-08-03T06:24:03.022Z,98461.69
2022-08-03T06:25:11.270Z,98469.25
2022-08-03T06:26:14.573Z,98462.25
2022-08-03T06:27:16.473Z,98462.03
2022-08-03T06:28:51.482Z,98469.19
2022-08-03T06:29:40.154Z,98466.75
2022-08-03T06:30:41.939Z,98463.38
2022-08-03T06:31:43.439Z,98468.06
2022-08-03T06:32:52.195Z,98468.81
2022-08-03T06:34:33.748Z,98465.00
2022-08-03T06:35:16.302Z,98466.06
2022-08-03T06:36:17.782Z,98466.00
2022-08-03T06:37:19.243Z,98469.75
2022-08-03T06:38:21.217Z,98458.63
2022-08-03T06:39:23.526Z,98461.22
2022-08-03T06:40:29.813Z,98461.31
2022-08-03T06:41:31.463Z,98464.66
2022-08-03T06:42:39.548Z,98468.66
2022-08-03T06:44:03.379Z,98462.03
2022-08-03T06:45:04.057Z,98459.72
2022-08-03T06:46:05.729Z,98458.03
2022-08-03T06:47:07.205Z,98459.03
2022-08-03T06:48:13.271Z,98460.03
2022-08-03T06:49:14.787Z,98465.63
2022-08-03T06:50:21.762Z,98464.53
2022-08-03T06:52:05.656Z,98457.84
2022-08-03T06:52:47.909Z,98465.31
2022-08-03T06:53:49.929Z,98473.28
2022-08-03T06:54:51.402Z,98465.84
2022-08-03T06:55:54.833Z,98468.38
2022-08-03T06:56:56.940Z,98470.69
2022-08-03T06:57:59.305Z,98467.38
2022-08-03T06:59:05.342Z,98475.78
2022-08-03T07:00:12.280Z,98470.88
2022-08-03T07:01:14.128Z,98469.97
2022-08-03T07:02:20.389Z,98472.00
2022-08-03T07:03:22.321Z,98469.56
2022-08-03T07:04:23.782Z,98468.03
2022-08-03T07:05:25.749Z,98469.88
2022-08-03T07:06:27.373Z,98468.38
2022-08-03T07:07:28.837Z,98465.47
2022-08-03T07:08:33.338Z,98475.69
2022-08-03T07:09:35.466Z,98471.47
2022-08-03T07:10:37.233Z,98476.31
2022-08-03T07:11:38.719Z,98468.13
2022-08-03T07:12:56.194Z,98477.63
2022-08-03T07:13:58.473Z,98470.50
2022-08-03T07:15:02.631Z,98474.13
2022-08-03T07:16:05.019Z,98473.56
2022-08-03T07:17:11.442Z,98471.63
2022-08-03T07:18:13.893Z,98471.41
2022-08-03T07:19:15.615Z,98473.53
2022-08-03T07:20:18.351Z,98472.88
2022-08-03T07:21:19.831Z,98472.38
2022-08-03T07:22:21.310Z,98464.84
2022-08-03T07:23:23.081Z,98464.28
2022-08-03T07:24:24.692Z,98469.69
2022-08-03T07:25:28.968Z,98469.88
2022-08-03T07:26:30.584Z,98462.97
2022-08-03T07:27:32.229Z,98463.91
2022-08-03T07:28:34.084Z,98456.19
2022-08-03T07:29:36.009Z,98467.34
2022-08-03T07:30:37.501Z,98466.41
2022-08-03T07:31:38.961Z,98461.81
2022-08-03T07:32:49.730Z,98467.38
2022-08-03T07:33:52.759Z,98470.00
2022-08-03T07:34:59.925Z,98468.53
2022-08-03T07:36:02.296Z,98465.47
2022-08-03T07:37:03.826Z,98470.34
2022-08-03T07:38:05.351Z,98471.88
2022-08-03T07:39:16.619Z,98467.84
2022-08-03T07:40:20.111Z,98466.66
2022-08-03T07:41:21.591Z,98468.00
2022-08-03T07:42:26.232Z,98463.97
2022-08-03T07:43:27.994Z,98462.22
2022-08-03T07:44:29.468Z,98462.81
2022-08-03T07:45:31.770Z,98464.72
2022-08-03T07:46:33.442Z,98468.66
2022-08-03T07:47:36.029Z,98468.22
2022-08-03T07:48:37.927Z,98463.28
2022-08-03T07:49:41.154Z,98466.00
2022-08-03T07:50:42.873Z,98472.16
2022-08-03T07:51:44.411Z,98469.13
2022-08-03T07:52:49.350Z,98468.56
2022-08-03T07:53:51.160Z,98469.13
2022-08-03T07:54:54.570Z,98468.69
2022-08-03T07:55:56.985Z,98464.47
2022-08-03T07:56:58.431Z,98459.53
2022-08-03T07:58:05.577Z,98461.63
2022-08-03T07:59:07.083Z,98459.38
2022-08-03T08:00:15.965Z,98456.34
2022-08-03T08:01:19.462Z,98457.28
2022-08-03T08:02:20.980Z,98451.88
2022-08-03T08:03:23.569Z,98459.06
2022-08-03T08:04:25.036Z,98453.19
2022-08-03T08:05:26.708Z,98453.91
2022-08-03T08:06:28.148Z,98460.47
2022-08-03T08:07:29.895Z,98459.13
2022-08-03T08:08:31.867Z,98457.88
2022-08-03T08:09:34.184Z,98458.19
2022-08-03T08:10:37.049Z,98456.56
2022-08-03T08:11:40.084Z,98460.53
2022-08-03T08:12:41.760Z,98457.81
2022-08-03T08:13:43.226Z,98458.28
2022-08-03T08:14:47.565Z,98455.53
2022-08-03T08:15:49.013Z,98452.06
2022-08-03T08:16:51.920Z,98451.06
2022-08-03T08:17:59.042Z,98447.84
2022-08-03T08:19:02.021Z,98454.88
2022-08-03T08:20:03.830Z,98453.16
2022-08-03T08:21:08.750Z,98446.25
2022-08-03T08:22:10.255Z,98447.16
2022-08-03T08:23:37.853Z,98451.38
2022-08-03T08:24:34.903Z,98445.59
2022-08-03T08:25:38.473Z,98446.34
2022-08-03T08:26:39.963Z,98442.25
2022-08-03T08:28:29.417Z,98444.38
2022-08-03T08:29:07.326Z,98446.88
2022-08-03T08:30:12.175Z,98446.38
2022-08-03T08:31:13.778Z,98449.91
2022-08-03T08:32:16.418Z,98449.16
2022-08-03T08:33:23.369Z,98447.75
2022-08-03T08:34:26.233Z,98440.94
2022-08-03T08:35:27.891Z,98441.47
2022-08-03T08:36:29.315Z,98448.69
2022-08-03T08:37:30.801Z,98441.13
2022-08-03T08:38:34.776Z,98452.06
2022-08-03T08:39:36.221Z,98440.88
2022-08-03T08:40:37.660Z,98439.56
2022-08-03T08:41:39.231Z,98444.34
2022-08-03T08:42:58.094Z,98445.72
2022-08-03T08:44:01.066Z,98443.03
2022-08-03T08:45:05.202Z,98449.75
2022-08-03T08:46:11.998Z,98439.09
2022-08-03T08:47:14.853Z,98446.00
2022-08-03T08:48:20.488Z,98440.41
2022-08-03T08:49:26.226Z,98447.41
2022-08-03T08:50:28.504Z,98448.16
2022-08-03T08:51:51.040Z,98452.63
2022-08-03T08:53:01.047Z,98440.19
2022-08-03T08:54:04.606Z,98442.81
2022-08-03T08:55:08.387Z,98447.41
2022-08-03T08:56:17.460Z,98441.44
2022-08-03T08:57:40.667Z,98439.84
2022-08-03T08:58:49.533Z,98441.63
2022-08-03T08:59:57.167Z,98437.22
2022-08-03T09:00:59.058Z,98434.31
2022-08-03T09:02:01.180Z,98433.00
2022-08-03T09:03:03.081Z,98429.19
2022-08-03T09:04:07.350Z,98431.72
2022-08-03T09:05:16.676Z,98433.09
2022-08-03T09:06:18.093Z,98429.31
2022-08-03T09:07:20.734Z,98429.00
2022-08-03T09:08:23.231Z,98425.34
2022-08-03T09:10:04.621Z,98426.16
2022-08-03T09:10:46.488Z,98420.28
2022-08-03T09:12:00.378Z,98424.03
2022-08-03T09:13:10.576Z,98423.09
2022-08-03T09:14:36.727Z,98430.50
2022-08-03T09:15:34.130Z,98422.16
2022-08-03T09:16:35.615Z,98427.13
2022-08-03T09:17:41.086Z,98427.03
2022-08-03T09:18:45.616Z,98432.31
2022-08-03T09:20:10.247Z,98423.16
2022-08-03T09:21:30.676Z,98426.06
2022-08-03T09:22:33.512Z,98419.53
2022-08-03T09:24:02.294Z,98422.59
2022-08-03T09:25:23.915Z,98419.63
2022-08-03T09:26:28.544Z,98414.56
2022-08-03T09:27:42.622Z,98414.34
2022-08-03T09:28:59.736Z,98417.00
2022-08-03T09:30:33.559Z,98407.94
2022-08-03T09:31:43.367Z,98419.94
2022-08-03T09:32:46.322Z,98419.44
2022-08-03T09:33:48.746Z,98414.19
2022-08-03T09:34:56.538Z,98415.78
2022-08-03T09:35:59.801Z,98421.13
2022-08-03T09:37:01.311Z,98415.06
2022-08-03T09:38:14.591Z,98414.75
2022-08-03T09:39:40.991Z,98414.25
2022-08-03T09:40:44.848Z,98421.41
2022-08-03T09:41:48.794Z,98413.84
2022-08-03T09:42:57.034Z,98409.34
2022-08-03T09:43:59.087Z,98408.59
2022-08-03T09:45:01.760Z,98408.81
2022-08-03T09:46:07.747Z,98415.63
2022-08-03T09:47:10.953Z,98411.88
2022-08-03T09:48:35.025Z,98411.31
2022-08-03T09:49:38.794Z,98414.25
2022-08-03T09:50:57.135Z,98414.66
2022-08-03T09:52:33.020Z,98411.19
2022-08-03T09:53:51.492Z,98417.59
2022-08-03T09:55:04.218Z,98418.41
2022-08-03T09:56:33.783Z,98409.06
2022-08-03T09:57:28.846Z,98411.50
2022-08-03T09:58:31.329Z,98414.22
2022-08-03T09:59:34.029Z,98416.72
2022-08-03T10:01:04.473Z,98404.97
2022-08-03T10:02:25.083Z,98398.69
2022-08-03T10:03:29.242Z,98402.69
2022-08-03T10:04:30.833Z,98413.47
2022-08-03T10:05:33.476Z,98408.13
2022-08-03T10:06:35.055Z,98407.94
2022-08-03T10:07:47.641Z,98408.47
2022-08-03T10:09:24.830Z,98409.09
2022-08-03T10:10:29.322Z,98403.38
2022-08-03T10:11:40.929Z,98415.47
2022-08-03T10:12:44.961Z,98414.94
2022-08-03T10:13:47.595Z,98415.47
2022-08-03T10:14:49.430Z,98404.91
2022-08-03T10:16:24.987Z,98395.44
2022-08-03T10:17:13.363Z,98394.16
2022-08-03T10:18:14.967Z,98396.31
2022-08-03T10:19:17.438Z,98396.59
2022-08-03T10:20:19.386Z,98397.50
2022-08-03T10:21:21.582Z,98401.75
2022-08-03T10:22:24.445Z,98396.19
2022-08-03T10:23:27.834Z,98395.72
2022-08-03T10:24:34.033Z,98400.53
2022-08-03T10:25:38.100Z,98402.06
2022-08-03T10:26:49.746Z,98406.50
2022-08-03T10:27:53.126Z,98401.13
2022-08-03T10:28:58.981Z,98393.09
2022-08-03T10:30:09.323Z,98389.38
2022-08-03T10:31:13.071Z,98388.16
2022-08-03T10:32:21.440Z,98395.81
2022-08-03T10:33:51.298Z,98387.31
2022-08-03T10:35:00.325Z,98388.88
2022-08-03T10:36:07.731Z,98396.38
2022-08-03T10:37:12.451Z,98394.50
2022-08-03T10:38:19.892Z,98394.59
2022-08-03T10:39:24.112Z,98388.63
2022-08-03T10:41:51.815Z,98393.59
2022-08-03T10:42:56.643Z,98391.91
2022-08-03T10:44:10.845Z,98383.72
2022-08-03T10:45:20.871Z,98384.97
2022-08-03T10:46:22.420Z,98377.78
2022-08-03T10:47:24.280Z,98375.66
2022-08-03T10:48:26.763Z,98382.84
2022-08-03T10:49:34.557Z,98382.13
2022-08-03T10:50:37.344Z,98369.16
2022-08-03T10:51:39.356Z,98372.88
2022-08-03T10:52:57.815Z,98364.88
2022-08-03T10:54:01.794Z,98361.78
2022-08-03T10:55:48.849Z,98368.13
2022-08-03T10:57:14.747Z,98366.91
2022-08-03T10:58:53.139Z,98362.56
2022-08-03T11:00:00.613Z,98363.31
2022-08-03T11:01:03.349Z,98366.34
2022-08-03T11:02:08.316Z,98367.09
2022-08-03T11:03:10.982Z,98366.84
2022-08-03T11:04:17.057Z,98375.81
2022-08-03T11:05:33.089Z,98361.44
2022-08-03T11:06:37.572Z,98366.66
2022-08-03T11:07:39.347Z,98360.72
2022-08-03T11:08:41.035Z,98369.09
2022-08-03T11:09:44.173Z,98362.94
2022-08-03T11:10:46.929Z,98360.53
2022-08-03T11:11:48.920Z,98361.44
2022-08-03T11:12:50.783Z,98357.75
2022-08-03T11:14:07.623Z,98353.28
2022-08-03T11:15:09.399Z,98355.50
2022-08-03T11:16:22.338Z,98350.56
2022-08-03T11:17:24.677Z,98355.06
2022-08-03T11:18:26.976Z,98344.16
2022-08-03T11:19:57.971Z,98343.66
2022-08-03T11:21:01.617Z,98353.34
2022-08-03T11:22:03.360Z,98341.44
2022-08-03T11:23:05.257Z,98345.63
2022-08-03T11:24:07.146Z,98349.63
2022-08-03T11:25:08.842Z,98350.94
2022-08-03T11:26:30.667Z,98344.22
2022-08-03T11:27:35.918Z,98338.75
2022-08-03T11:28:41.096Z,98346.91
2022-08-03T11:30:06.559Z,98348.94
2022-08-03T11:31:47.960Z,98342.47
2022-08-03T11:32:46.830Z,98330.03
2022-08-03T11:34:07.106Z,98338.69
2022-08-03T11:35:21.954Z,98339.16
2022-08-03T11:36:32.562Z,98335.25
2022-08-03T11:37:34.949Z,98330.78
2022-08-03T11:39:16.957Z,98341.03
2022-08-03T11:40:40.426Z,98331.00
2022-08-03T11:41:45.364Z,98335.22
2022-08-03T11:42:48.442Z,98332.94
2022-08-03T11:43:49.971Z,98336.38
2022-08-03T11:44:56.454Z,98334.84
2022-08-03T11:45:58.019Z,98333.16
2022-08-03T11:47:00.722Z,98328.25
2022-08-03T11:48:15.895Z,98329.28
2022-08-03T11:49:23.642Z,98332.47
2022-08-03T11:50:25.763Z,98325.63
2022-08-03T11:51:29.189Z,98330.88
2022-08-03T11:52:40.110Z,98330.41
2022-08-03T11:53:43.891Z,98331.34
2022-08-03T11:54:46.902Z,98332.88
2022-08-03T11:55:49.046Z,98333.78
2022-08-03T11:56:51.022Z,98325.34
2022-08-03T11:59:15.256Z,98321.72
2022-08-03T11:59:19.989Z,98325.22
2022-08-03T12:00:31.935Z,98318.31
2022-08-03T12:01:33.621Z,98325.97
2022-08-03T12:02:35.462Z,98322.50
2022-08-03T12:03:37.335Z,98328.47
2022-08-03T12:04:52.209Z,98321.53
2022-08-03T12:05:54.783Z,98329.47
2022-08-03T12:07:00.366Z,98322.28
2022-08-03T12:08:04.373Z,98320.06
2022-08-03T12:09:16.872Z,98321.06
2022-08-03T12:10:18.449Z,98322.31
2022-08-03T12:11:20.043Z,98309.91
2022-08-03T12:12:21.758Z,98313.66
2022-08-03T12:14:35.673Z,98318.88
2022-08-03T12:14:58.447Z,98319.59
2022-08-03T12:16:00.009Z,98317.13
2022-08-03T12:17:01.796Z,98315.63
2022-08-03T12:18:13.142Z,98309.94
2022-08-03T12:19:14.997Z,98309.94
2022-08-03T12:20:35.006Z,98307.69
2022-08-03T12:21:57.225Z,98306.47
2022-08-03T12:23:04.502Z,98305.72
2022-08-03T12:24:06.449Z,98308.69
2022-08-03T12:25:09.523Z,98315.13
2022-08-03T12:26:11.193Z,98312.44
2022-08-03T12:27:12.801Z,98306.72
2022-08-03T12:28:36.582Z,98298.56
2022-08-03T12:29:39.474Z,98314.16
2022-08-03T12:30:41.665Z,98301.00
2022-08-03T12:31:43.207Z,98297.06
2022-08-03T12:32:45.034Z,98301.22
2022-08-03T12:33:58.745Z,98304.69
2022-08-03T12:35:02.125Z,98299.03
2022-08-03T12:36:07.112Z,98298.72
2022-08-03T12:37:22.349Z,98297.47
2022-08-03T12:38:24.392Z,98295.03
2022-08-03T12:39:31.360Z,98302.50
2022-08-03T12:40:33.047Z,98295.53
2022-08-03T12:41:39.151Z,98290.78
2022-08-03T12:42:40.957Z,98293.75
2022-08-03T12:43:49.558Z,98300.09
2022-08-03T12:44:51.232Z,98300.53
2022-08-03T12:46:12.611Z,98290.28
2022-08-03T12:47:15.828Z,98293.75
2022-08-03T12:48:17.302Z,98285.03
2022-08-03T12:49:19.877Z,98288.72
2022-08-03T12:50:36.083Z,98299.63
2022-08-03T12:52:03.919Z,98274.75
2022-08-03T12:53:10.013Z,98285.19
2022-08-03T12:54:24.814Z,98282.75
2022-08-03T12:55:57.767Z,98278.09
2022-08-03T12:57:16.052Z,98277.31
2022-08-03T12:58:34.196Z,98281.00
2022-08-03T12:59:53.551Z,98273.75
2022-08-03T13:00:56.159Z,98272.72
2022-08-03T13:01:58.249Z,98264.88
2022-08-03T13:04:33.742Z,98275.09
2022-08-03T13:05:45.141Z,98277.59